Time;durP1;ratioP1;P1;durP2;ratioP2;P2;SDS_P1;SDS_P2;PMS_P1;PMS_P2;Temp;Humidity;BMP_temperature;BMP_pressure;BME280_temperature;BME280_humidity;BME280_pressure;Samples;Min_cycle;Max_cycle;Signal;HPM_P1;HPM_P2
2021/10/12 00:01:35;;;;;;;26.25;17.48;;;8.80;64.80;;;;;;6096184;23;20003;-80
2021/10/12 00:04:01;;;;;;;26.55;17.75;;;8.70;64.90;;;;;;6067798;23;20149;-81
2021/10/12 00:06:27;;;;;;;26.27;18.02;;;8.80;65.00;;;;;;6093450;23;20002;-82
2021/10/12 00:08:54;;;;;;;26.65;17.60;;;8.70;65.00;;;;;;6093597;23;20069;-81
2021/10/12 00:11:20;;;;;;;31.83;20.00;;;8.80;65.20;;;;;;6093316;23;19999;-81
2021/10/12 00:13:46;;;;;;;27.75;17.95;;;8.70;65.20;;;;;;6068749;23;20021;-81
2021/10/12 00:16:12;;;;;;;29.17;18.55;;;8.70;65.20;;;;;;6094132;23;19999;-81
2021/10/12 00:18:38;;;;;;;33.80;19.67;;;8.70;65.40;;;;;;6093748;23;20013;-81
2021/10/12 00:21:04;;;;;;;31.80;19.08;;;8.70;65.40;;;;;;6094549;23;20002;-85
2021/10/12 00:23:30;;;;;;;32.60;18.92;;;8.70;65.60;;;;;;6093581;23;20072;-82
2021/10/12 00:25:56;;;;;;;30.77;20.20;;;8.70;65.60;;;;;;6094701;23;19999;-83
2021/10/12 00:28:24;;;;;;;32.50;19.92;;;8.70;65.80;;;;;;6094951;23;20064;-83
2021/10/12 00:30:51;;;;;;;31.25;19.92;;;8.70;65.80;;;;;;6095445;23;20422;-83
2021/10/12 00:33:17;;;;;;;26.38;18.15;;;8.70;65.90;;;;;;6094193;23;20051;-85
2021/10/12 00:35:42;;;;;;;33.10;19.35;;;8.70;65.90;;;;;;6094255;23;20003;-83
2021/10/12 00:38:08;;;;;;;36.35;20.33;;;8.70;66.00;;;;;;6095057;23;20065;-85
2021/10/12 00:40:37;;;;;;;31.92;20.20;;;8.70;66.10;;;;;;6094573;23;19999;-79
2021/10/12 00:43:04;;;;;;;33.92;22.23;;;8.60;66.20;;;;;;6073339;23;20475;-82
2021/10/12 00:45:30;;;;;;;29.05;19.73;;;8.60;66.30;;;;;;6104420;23;19999;-76
2021/10/12 00:47:58;;;;;;;30.70;20.05;;;8.60;66.40;;;;;;6093316;23;20060;-81
2021/10/12 00:50:25;;;;;;;33.60;21.05;;;8.60;67.20;;;;;;6092523;23;20093;-79
2021/10/12 00:52:51;;;;;;;32.20;19.97;;;8.60;66.70;;;;;;6092546;23;20003;-79
2021/10/12 00:55:17;;;;;;;41.25;20.27;;;8.60;66.60;;;;;;6092704;23;20003;-80
2021/10/12 00:57:43;;;;;;;40.25;20.33;;;8.60;66.80;;;;;;6092668;23;20006;-78
2021/10/12 01:00:10;;;;;;;35.08;21.23;;;8.60;66.80;;;;;;6092647;23;20329;-80
2021/10/12 01:02:37;;;;;;;33.05;20.70;;;8.50;66.90;;;;;;6066777;23;20023;-79
2021/10/12 01:05:05;;;;;;;29.30;19.88;;;8.50;66.90;;;;;;6092609;23;20090;-79
2021/10/12 01:07:31;;;;;;;37.28;22.23;;;8.50;67.00;;;;;;6092513;23;20069;-79
2021/10/12 01:09:56;;;;;;;29.05;20.00;;;8.50;67.70;;;;;;6092443;23;20088;-80
2021/10/12 01:12:23;;;;;;;36.50;21.15;;;8.50;67.10;;;;;;6066725;23;20492;-80
2021/10/12 01:14:49;;;;;;;36.97;19.95;;;8.50;67.20;;;;;;6066676;23;20029;-79
2021/10/12 01:17:15;;;;;;;37.85;21.88;;;8.50;67.20;;;;;;6092433;23;20003;-79
2021/10/12 01:19:40;;;;;;;34.92;20.83;;;8.60;67.10;;;;;;6092384;23;20009;-79
2021/10/12 01:22:06;;;;;;;36.03;21.15;;;8.60;67.20;;;;;;6092488;23;19999;-80
2021/10/12 01:24:32;;;;;;;31.30;20.10;;;8.60;67.30;;;;;;6092005;23;20386;-80
2021/10/12 01:26:58;;;;;;;33.95;22.52;;;8.60;67.20;;;;;;6066866;23;20089;-79
2021/10/12 01:29:24;;;;;;;35.13;22.67;;;8.60;67.30;;;;;;6092404;23;20441;-80
2021/10/12 01:31:50;;;;;;;33.83;20.50;;;8.60;67.30;;;;;;6066636;23;20450;-77
2021/10/12 01:34:20;;;;;;;33.92;21.00;;;8.60;67.30;;;;;;6066710;23;20011;-79
2021/10/12 01:36:48;;;;;;;28.27;20.88;;;8.60;67.40;;;;;;6067205;23;20468;-78
2021/10/12 01:39:15;;;;;;;36.15;21.88;;;8.60;67.30;;;;;;6092163;23;20513;-79
2021/10/12 01:41:43;;;;;;;37.92;21.40;;;8.60;67.20;;;;;;6092245;23;19999;-79
2021/10/12 01:44:13;;;;;;;39.55;21.52;;;8.70;67.30;;;;;;6092316;23;20342;-78
2021/10/12 01:46:39;;;;;;;36.75;20.58;;;8.60;67.40;;;;;;6091900;23;20006;-78
2021/10/12 01:49:05;;;;;;;31.27;21.73;;;8.50;67.40;;;;;;6066661;23;20026;-79
2021/10/12 01:51:31;;;;;;;27.13;18.92;;;8.50;67.50;;;;;;6092443;23;20065;-80
2021/10/12 01:53:58;;;;;;;29.70;19.48;;;8.50;67.70;;;;;;6093036;23;20026;-79
2021/10/12 01:56:24;;;;;;;29.60;19.77;;;8.50;67.60;;;;;;6094741;23;20392;-78
2021/10/12 01:58:50;;;;;;;34.50;20.33;;;8.50;67.60;;;;;;6094268;23;19999;-80
2021/10/12 02:01:21;;;;;;;34.40;22.30;;;8.50;67.70;;;;;;6093443;23;20003;-79
2021/10/12 02:03:47;;;;;;;30.63;18.85;;;8.50;67.70;;;;;;6093016;23;20341;-78
2021/10/12 02:06:13;;;;;;;36.70;21.30;;;8.50;67.70;;;;;;6093476;23;20002;-79
2021/10/12 02:08:40;;;;;;;27.05;17.52;;;8.50;67.80;;;;;;6093103;23;20006;-78
2021/10/12 02:11:06;;;;;;;35.22;20.90;;;8.50;67.80;;;;;;6067777;23;20437;-79
2021/10/12 02:13:32;;;;;;;33.60;20.75;;;8.50;67.90;;;;;;6093179;23;20033;-79
2021/10/12 02:15:58;;;;;;;29.95;18.98;;;8.60;68.00;;;;;;6093480;23;19999;-80
2021/10/12 02:18:24;;;;;;;31.58;21.52;;;8.60;68.00;;;;;;6093493;23;20007;-80
2021/10/12 02:20:50;;;;;;;37.80;22.45;;;8.60;68.30;;;;;;6093643;23;19995;-79
2021/10/12 02:23:16;;;;;;;33.58;20.98;;;8.60;68.40;;;;;;6093006;23;20022;-79
2021/10/12 02:25:42;;;;;;;32.67;20.27;;;8.60;68.40;;;;;;6093339;23;20044;-79
2021/10/12 02:28:08;;;;;;;33.72;22.40;;;8.60;68.30;;;;;;6093441;23;20007;-79
2021/10/12 02:30:34;;;;;;;36.88;23.45;;;8.50;68.30;;;;;;6093277;23;20073;-78
2021/10/12 02:33:00;;;;;;;33.03;21.65;;;8.50;68.50;;;;;;6093589;23;20156;-78
2021/10/12 02:35:26;;;;;;;38.20;23.88;;;8.50;68.60;;;;;;6093512;23;20028;-79
2021/10/12 02:37:52;;;;;;;32.40;20.42;;;8.50;68.70;;;;;;6093304;23;20002;-78
2021/10/12 02:40:18;;;;;;;34.35;21.73;;;8.50;68.70;;;;;;6093438;23;19998;-78
2021/10/12 02:42:44;;;;;;;32.75;23.92;;;8.50;68.90;;;;;;6067744;23;20061;-79
2021/10/12 02:45:09;;;;;;;34.05;23.10;;;8.50;69.00;;;;;;6093024;23;20010;-79
2021/10/12 02:47:35;;;;;;;34.60;24.00;;;8.50;69.10;;;;;;6093435;23;20107;-79
2021/10/12 02:50:04;;;;;;;38.95;23.80;;;8.40;69.20;;;;;;6069237;23;20383;-78
2021/10/12 02:52:30;;;;;;;38.10;23.23;;;8.50;69.60;;;;;;6094513;23;20325;-79
2021/10/12 02:54:56;;;;;;;38.20;23.38;;;8.40;69.90;;;;;;6094259;23;20030;-79
2021/10/12 02:57:22;;;;;;;34.28;22.95;;;8.40;69.90;;;;;;6093391;23;20441;-79
2021/10/12 02:59:49;;;;;;;38.20;24.30;;;8.40;70.10;;;;;;6093992;23;20033;-79
2021/10/12 03:02:15;;;;;;;40.45;24.38;;;8.40;70.30;;;;;;6067820;23;20326;-79
2021/10/12 03:04:40;;;;;;;43.33;24.70;;;8.30;70.20;;;;;;6093149;23;20037;-79
2021/10/12 03:07:06;;;;;;;40.95;24.55;;;8.30;70.50;;;;;;6092925;23;19998;-80
2021/10/12 03:09:32;;;;;;;42.97;26.67;;;8.30;70.60;;;;;;6093206;23;20087;-79
2021/10/12 03:11:58;;;;;;;41.20;25.85;;;8.30;70.60;;;;;;6093169;23;20430;-77
2021/10/12 03:14:24;;;;;;;34.88;23.40;;;8.30;70.90;;;;;;6093286;23;19999;-79
2021/10/12 03:16:50;;;;;;;39.08;25.05;;;8.30;71.10;;;;;;6093086;23;20075;-80
2021/10/12 03:19:16;;;;;;;43.60;25.92;;;8.20;71.20;;;;;;6093809;23;19998;-79
2021/10/12 03:21:51;;;;;;;35.08;24.30;;;8.20;71.40;;;;;;6093334;23;20026;-79
2021/10/12 03:24:17;;;;;;;43.38;26.42;;;8.10;71.60;;;;;;6092891;23;20014;-79
2021/10/12 03:26:43;;;;;;;29.70;24.08;;;8.00;71.80;;;;;;6093297;23;20007;-80
2021/10/12 03:29:08;;;;;;;54.88;25.85;;;8.00;71.90;;;;;;6093229;23;20028;-80
2021/10/12 03:31:34;;;;;;;38.15;25.00;;;7.90;72.00;;;;;;6093091;23;20002;-79
2021/10/12 03:34:00;;;;;;;40.72;25.90;;;7.80;72.40;;;;;;6093439;23;20006;-79
2021/10/12 03:36:26;;;;;;;45.88;25.30;;;7.80;72.70;;;;;;6093277;23;19999;-79
2021/10/12 03:38:52;;;;;;;38.33;25.45;;;7.70;73.00;;;;;;6093287;23;20077;-80
2021/10/12 03:41:17;;;;;;;38.60;25.25;;;7.70;73.00;;;;;;6093372;23;19995;-79
2021/10/12 03:43:43;;;;;;;40.10;27.73;;;7.70;73.10;;;;;;6093028;23;20033;-79
2021/10/12 03:46:09;;;;;;;43.65;26.92;;;7.60;73.30;;;;;;6093907;23;20003;-78
2021/10/12 03:48:36;;;;;;;43.65;25.77;;;7.60;73.50;;;;;;6093039;23;20389;-78
2021/10/12 03:51:02;;;;;;;39.55;26.67;;;7.70;73.60;;;;;;6093266;23;20086;-80
2021/10/12 03:53:27;;;;;;;43.13;28.17;;;7.70;73.90;;;;;;6094769;23;20003;-81
2021/10/12 03:55:53;;;;;;;42.00;26.70;;;7.60;74.00;;;;;;6072714;23;20002;-79
2021/10/12 03:58:19;;;;;;;42.75;27.05;;;7.60;74.10;;;;;;6093361;23;20002;-79
2021/10/12 04:00:45;;;;;;;37.38;24.35;;;7.50;74.10;;;;;;6093162;23;20003;-80
2021/10/12 04:03:11;;;;;;;32.55;24.88;;;7.50;74.30;;;;;;6093130;23;20011;-80
2021/10/12 04:05:36;;;;;;;39.67;23.73;;;7.50;74.50;;;;;;6093485;23;20026;-80
2021/10/12 04:08:02;;;;;;;41.85;25.60;;;7.40;74.70;;;;;;6093769;23;20471;-80
2021/10/12 04:10:28;;;;;;;42.97;25.65;;;7.40;74.90;;;;;;6067527;23;20448;-79
2021/10/12 04:12:54;;;;;;;46.85;25.55;;;7.40;75.10;;;;;;6093305;23;19998;-80
2021/10/12 04:15:20;;;;;;;50.60;24.52;;;7.30;75.10;;;;;;6093123;23;20009;-79
2021/10/12 04:17:45;;;;;;;41.08;24.48;;;7.30;75.20;;;;;;6066760;23;20011;-81
2021/10/12 04:20:11;;;;;;;39.88;23.63;;;7.30;75.30;;;;;;6093265;23;20003;-79
2021/10/12 04:22:37;;;;;;;35.92;21.50;;;7.30;76.00;;;;;;6066204;23;20006;-80
2021/10/12 04:25:03;;;;;;;36.42;22.60;;;7.40;75.40;;;;;;6093025;23;20495;-83
2021/10/12 04:27:29;;;;;;;41.67;23.70;;;7.40;75.20;;;;;;6067576;23;20010;-79
2021/10/12 04:29:55;;;;;;;35.10;23.15;;;7.40;75.10;;;;;;6092924;23;20010;-79
2021/10/12 04:32:24;;;;;;;42.42;23.08;;;7.40;75.10;;;;;;6093047;23;20003;-80
2021/10/12 04:34:50;;;;;;;31.83;21.75;;;7.50;75.00;;;;;;6092685;23;20461;-80
2021/10/12 04:37:17;;;;;;;38.55;23.27;;;7.50;74.90;;;;;;6067539;23;20086;-80
2021/10/12 04:39:43;;;;;;;35.05;21.33;;;7.50;75.00;;;;;;6093280;23;20037;-79
2021/10/12 04:42:09;;;;;;;38.28;20.85;;;7.60;74.80;;;;;;6092409;23;20073;-80
2021/10/12 04:44:35;;;;;;;34.50;21.23;;;7.60;74.70;;;;;;6093008;23;20393;-80
2021/10/12 04:47:01;;;;;;;32.05;20.80;;;7.60;74.60;;;;;;6092682;23;19998;-81
2021/10/12 04:49:26;;;;;;;36.10;22.38;;;7.70;74.40;;;;;;6092853;23;20022;-80
2021/10/12 04:51:52;;;;;;;34.45;20.50;;;7.80;74.20;;;;;;6092611;23;20014;-80
2021/10/12 04:54:18;;;;;;;34.25;20.48;;;7.90;74.10;;;;;;6092552;23;20002;-80
2021/10/12 04:56:44;;;;;;;31.88;19.58;;;7.90;73.80;;;;;;6092655;23;19998;-80
2021/10/12 04:59:10;;;;;;;32.40;22.52;;;7.90;73.60;;;;;;6067349;23;20007;-80
2021/10/12 05:01:35;;;;;;;34.10;22.33;;;7.90;73.70;;;;;;6093672;23;20006;-79
2021/10/12 05:04:01;;;;;;;34.42;19.75;;;8.00;73.60;;;;;;6067375;23;20014;-82
2021/10/12 05:06:27;;;;;;;33.88;22.55;;;8.10;73.20;;;;;;6092717;23;20035;-81
2021/10/12 05:08:54;;;;;;;35.33;22.92;;;8.10;73.20;;;;;;6092457;23;20002;-79
2021/10/12 05:11:20;;;;;;;35.92;20.95;;;8.10;73.10;;;;;;6093043;23;20002;-80
2021/10/12 05:13:48;;;;;;;30.95;20.73;;;8.20;73.60;;;;;;6092679;23;20465;-80
2021/10/12 05:16:14;;;;;;;31.77;20.10;;;8.30;72.80;;;;;;6092161;23;19998;-80
2021/10/12 05:18:43;;;;;;;32.78;22.30;;;8.30;72.30;;;;;;6092316;23;20021;-79
2021/10/12 05:21:09;;;;;;;33.53;20.63;;;8.20;72.50;;;;;;6092393;23;20326;-79
2021/10/12 05:23:35;;;;;;;34.13;21.70;;;8.30;72.70;;;;;;6092033;23;20075;-80
2021/10/12 05:26:01;;;;;;;32.00;20.95;;;8.30;72.60;;;;;;6092195;23;20476;-81
2021/10/12 05:28:28;;;;;;;34.47;21.30;;;8.40;72.40;;;;;;6092070;23;19998;-80
2021/10/12 05:30:54;;;;;;;34.28;20.25;;;8.40;72.00;;;;;;6093477;23;20030;-80
2021/10/12 05:33:20;;;;;;;37.25;21.08;;;8.40;71.90;;;;;;6093586;23;20002;-80
2021/10/12 05:35:48;;;;;;;42.55;23.38;;;8.50;71.80;;;;;;6093478;23;19998;-81
2021/10/12 05:38:14;;;;;;;32.13;21.00;;;8.50;71.80;;;;;;6093479;23;20279;-80
2021/10/12 05:40:43;;;;;;;36.90;21.15;;;8.60;71.50;;;;;;6093324;23;20086;-80
2021/10/12 05:43:09;;;;;;;37.55;21.10;;;8.60;71.30;;;;;;6092954;23;20010;-81
2021/10/12 05:45:35;;;;;;;39.00;21.73;;;8.70;71.20;;;;;;6092058;23;20014;-80
2021/10/12 05:48:06;;;;;;;31.48;20.25;;;8.60;71.10;;;;;;6092937;23;20006;-80
2021/10/12 05:50:32;;;;;;;34.03;21.23;;;8.60;70.90;;;;;;6094997;23;20003;-80
2021/10/12 06:01:02;;;;;;;40.72;23.15;;;8.90;70.60;;;;;;6093434;23;20056;-80
2021/10/12 06:03:28;;;;;;;38.08;23.65;;;9.10;70.10;;;;;;6092700;23;20020;-81
2021/10/12 06:05:55;;;;;;;32.70;22.45;;;9.20;69.70;;;;;;6093642;23;20405;-80
2021/10/12 06:08:21;;;;;;;37.43;23.87;;;9.30;69.50;;;;;;6094029;23;20068;-80
2021/10/12 06:10:47;;;;;;;41.78;25.33;;;9.40;69.10;;;;;;6067748;23;20060;-81
2021/10/12 06:13:14;;;;;;;40.80;23.52;;;9.50;69.10;;;;;;6093887;23;20030;-81
2021/10/12 06:15:42;;;;;;;40.65;22.70;;;9.50;68.60;;;;;;6096177;23;20003;-81
2021/10/12 06:18:08;;;;;;;41.42;23.80;;;9.50;68.00;;;;;;6070797;23;20421;-80
2021/10/12 06:20:36;;;;;;;42.22;25.40;;;9.50;68.30;;;;;;6093474;23;19998;-80
2021/10/12 06:23:03;;;;;;;39.60;22.58;;;9.50;68.10;;;;;;6092822;23;20084;-80
2021/10/12 06:25:29;;;;;;;44.88;24.25;;;9.40;67.80;;;;;;6094034;23;20061;-79
2021/10/12 06:27:57;;;;;;;34.13;21.42;;;9.30;68.30;;;;;;6068662;23;20089;-81
2021/10/12 06:30:22;;;;;;;42.67;24.50;;;9.20;68.30;;;;;;6070176;23;20017;-82
2021/10/12 06:32:48;;;;;;;43.08;22.65;;;9.10;68.80;;;;;;6097582;23;20390;-80
2021/10/12 06:35:14;;;;;;;37.70;23.27;;;9.00;69.60;;;;;;6068329;23;20314;-80
2021/10/12 06:37:40;;;;;;;38.85;24.25;;;9.00;69.10;;;;;;6094319;23;20018;-81
2021/10/12 06:40:06;;;;;;;41.15;25.48;;;8.90;69.40;;;;;;6095418;23;20013;-80
2021/10/12 06:42:35;;;;;;;38.83;25.75;;;8.90;69.50;;;;;;6068169;23;20014;-81
2021/10/12 06:45:01;;;;;;;39.70;24.23;;;9.00;69.70;;;;;;6093457;23;20417;-80
2021/10/12 06:47:27;;;;;;;46.55;24.20;;;9.10;69.60;;;;;;6093152;23;20073;-80
2021/10/12 06:49:53;;;;;;;42.58;23.13;;;9.00;69.10;;;;;;6093675;23;20045;-79
2021/10/12 06:52:20;;;;;;;38.97;22.52;;;9.00;69.20;;;;;;6094643;23;20052;-79
2021/10/12 06:54:48;;;;;;;39.85;24.40;;;8.90;69.30;;;;;;6093435;23;20002;-80
2021/10/12 06:57:17;;;;;;;35.40;22.27;;;8.90;69.40;;;;;;6067925;23;20010;-81
2021/10/12 06:59:45;;;;;;;37.42;24.80;;;9.00;69.50;;;;;;6093431;23;20013;-80
2021/10/12 07:02:12;;;;;;;41.55;26.33;;;9.20;69.30;;;;;;6093213;23;20081;-80
2021/10/12 07:04:39;;;;;;;48.80;25.63;;;9.30;69.00;;;;;;6068018;23;20012;-81
2021/10/12 07:07:05;;;;;;;45.95;26.65;;;9.40;68.70;;;;;;6067269;23;20422;-79
2021/10/12 07:09:31;;;;;;;47.00;26.65;;;9.50;68.70;;;;;;6093125;23;20011;-81
2021/10/12 07:11:56;;;;;;;41.33;23.67;;;9.60;68.10;;;;;;6092885;23;20005;-79
2021/10/12 07:14:25;;;;;;;42.75;24.98;;;9.70;67.60;;;;;;6092933;23;20006;-80
2021/10/12 07:16:51;;;;;;;45.55;24.30;;;10.20;68.10;;;;;;6092974;23;20029;-80
2021/10/12 07:19:18;;;;;;;39.25;21.67;;;11.20;67.10;;;;;;6093095;23;19998;-80
2021/10/12 07:21:45;;;;;;;35.78;24.15;;;12.30;62.40;;;;;;6093582;23;20369;-81
2021/10/12 07:24:12;;;;;;;46.42;24.92;;;12.60;60.00;;;;;;6093049;23;20026;-79
2021/10/12 07:26:38;;;;;;;48.40;27.08;;;12.60;59.70;;;;;;6093664;23;20078;-80
2021/10/12 07:29:04;;;;;;;42.17;25.20;;;12.40;59.60;;;;;;6093104;23;20006;-80
2021/10/12 07:31:31;;;;;;;40.47;25.92;;;12.20;59.50;;;;;;6093850;23;20011;-79
2021/10/12 07:33:57;;;;;;;44.92;24.35;;;11.90;60.20;;;;;;6095274;23;20038;-79
2021/10/12 07:36:23;;;;;;;29.42;20.85;;;11.80;60.60;;;;;;6093005;23;20006;-79
2021/10/12 07:38:49;;;;;;;34.72;20.70;;;11.70;60.60;;;;;;6093257;23;20003;-81
2021/10/12 07:41:15;;;;;;;37.40;22.67;;;11.60;60.50;;;;;;6093652;23;20030;-80
2021/10/12 07:43:41;;;;;;;34.63;20.42;;;11.50;60.60;;;;;;6066992;23;20011;-82
2021/10/12 07:46:07;;;;;;;34.00;20.73;;;11.50;60.50;;;;;;6093055;23;20010;-81
2021/10/12 07:48:34;;;;;;;36.30;21.05;;;11.50;61.00;;;;;;6093164;23;19999;-81
2021/10/12 07:51:00;;;;;;;27.60;22.48;;;11.70;60.50;;;;;;6093072;23;20329;-81
2021/10/12 07:53:26;;;;;;;36.90;19.58;;;12.40;60.40;;;;;;6066692;23;20003;-81
2021/10/12 07:55:58;;;;;;;31.58;20.25;;;13.50;57.40;;;;;;6095148;23;20002;-81
2021/10/12 07:58:24;;;;;;;36.20;21.55;;;14.80;55.10;;;;;;6093894;23;20010;-81
2021/10/12 08:00:50;;;;;;;35.72;21.00;;;15.90;51.60;;;;;;6093136;23;20003;-81
2021/10/12 08:03:17;;;;;;;27.00;19.92;;;16.80;49.80;;;;;;6092878;23;20011;-81
2021/10/12 08:05:43;;;;;;;31.35;19.35;;;17.50;46.80;;;;;;6092990;23;20007;-80
2021/10/12 08:08:08;;;;;;;31.10;19.52;;;18.40;45.20;;;;;;6093060;23;20314;-79
2021/10/12 08:10:36;;;;;;;26.90;18.45;;;19.60;43.70;;;;;;6092606;23;20013;-79
2021/10/12 08:13:08;;;;;;;26.52;18.15;;;20.60;41.30;;;;;;6092531;23;20010;-80
2021/10/12 08:15:34;;;;;;;29.15;17.90;;;21.00;39.10;;;;;;6092731;23;20018;-79
2021/10/12 08:18:00;;;;;;;24.98;17.10;;;20.80;39.10;;;;;;6093661;23;20006;-81
2021/10/12 08:20:27;;;;;;;22.45;16.52;;;21.10;38.20;;;;;;6093196;23;20060;-80
2021/10/12 08:22:54;;;;;;;22.10;18.23;;;21.10;37.80;;;;;;6092482;23;20014;-82
2021/10/12 08:25:20;;;;;;;22.02;16.63;;;21.50;38.00;;;;;;6092589;23;20007;-81
2021/10/12 08:27:46;;;;;;;29.60;17.42;;;21.80;36.30;;;;;;6066728;23;20070;-80
2021/10/12 08:30:12;;;;;;;20.63;15.70;;;21.50;36.10;;;;;;6092696;23;20373;-81
2021/10/12 08:32:39;;;;;;;26.27;16.13;;;20.60;37.30;;;;;;6092520;23;20014;-81
2021/10/12 08:35:08;;;;;;;27.73;15.93;;;20.50;38.00;;;;;;6092473;23;20018;-79
2021/10/12 08:37:37;;;;;;;24.45;15.93;;;20.30;38.20;;;;;;6092702;23;20433;-78
2021/10/12 08:40:08;;;;;;;22.05;16.92;;;20.70;37.90;;;;;;6092941;23;20003;-79
2021/10/12 08:42:45;;;;;;;25.20;15.40;;;21.00;37.00;;;;;;6092592;23;20006;-81
2021/10/12 08:45:11;;;;;;;27.17;18.05;;;21.40;37.10;;;;;;6092359;23;20010;-80
2021/10/12 08:47:37;;;;;;;28.35;16.35;;;22.20;36.20;;;;;;6093914;23;20009;-80
2021/10/12 08:50:07;;;;;;;25.73;14.75;;;21.90;35.80;;;;;;6069196;23;20010;-81
2021/10/12 08:52:32;;;;;;;19.40;15.25;;;21.60;36.00;;;;;;6092508;23;20014;-80
2021/10/12 08:54:59;;;;;;;21.58;15.43;;;21.60;35.50;;;;;;6092652;23;19995;-82
2021/10/12 08:57:36;;;;;;;23.55;15.10;;;21.20;36.00;;;;;;6093021;23;20311;-81
2021/10/12 09:00:20;;;;;;;;;;;20.90;36.90;;;;;;6093109;23;20008;-80
2021/10/12 09:05:57;;;;;;;24.48;13.75;;;21.40;36.30;;;;;;6102667;23;20010;-81
2021/10/12 09:08:27;;;;;;;26.15;14.45;;;21.30;35.90;;;;;;6092505;23;20010;-82
2021/10/12 09:10:54;;;;;;;21.48;15.60;;;21.50;36.30;;;;;;6092346;23;20010;-81
2021/10/12 09:13:20;;;;;;;23.55;11.70;;;22.40;35.40;;;;;;6067038;23;20393;-80
2021/10/12 09:16:04;;;;;;;15.00;12.40;;;22.40;33.60;;;;;;6092486;23;20002;-80
2021/10/12 09:18:50;;;;;;;21.60;11.30;;;20.70;35.00;;;;;;6092776;23;20002;-81
2021/10/12 09:21:31;;;;;;;18.80;10.93;;;20.60;35.70;;;;;;6092925;23;20010;-80
2021/10/12 09:24:11;;;;;;;18.55;11.90;;;19.80;35.70;;;;;;6092725;23;20044;-80
2021/10/12 09:26:44;;;;;;;18.13;11.02;;;19.40;36.90;;;;;;6067826;23;20029;-81
2021/10/12 09:29:22;;;;;;;13.70;10.10;;;19.50;37.10;;;;;;6092772;23;20017;-80
2021/10/12 09:31:48;;;;;;;12.43;8.98;;;19.20;36.90;;;;;;6093492;23;20011;-81
2021/10/12 09:34:15;;;;;;;16.38;10.63;;;18.90;37.30;;;;;;6095084;23;20009;-81
2021/10/12 09:36:48;;;;;;;15.13;10.27;;;18.50;38.30;;;;;;6095623;23;20007;-80
2021/10/12 09:39:27;;;;;;;13.88;10.75;;;18.10;38.80;;;;;;6093182;23;20069;-80
2021/10/12 09:41:58;;;;;;;13.65;11.30;;;18.50;38.90;;;;;;6093251;23;20003;-81
2021/10/12 09:44:24;;;;;;;16.48;10.40;;;19.30;38.00;;;;;;6092449;23;20437;-80
2021/10/12 09:46:52;;;;;;;15.13;10.20;;;19.60;37.30;;;;;;6066532;23;20002;-81
2021/10/12 09:49:19;;;;;;;16.13;10.90;;;20.10;36.60;;;;;;6091846;23;20030;-80
2021/10/12 09:52:08;;;;;;;17.10;10.00;;;19.90;36.70;;;;;;6093076;23;20130;-83
2021/10/12 09:54:56;;;;;;;16.25;10.38;;;19.60;36.70;;;;;;6092815;23;20033;-81
2021/10/12 09:57:23;;;;;;;10.80;8.65;;;19.70;37.10;;;;;;6092880;23;20341;-81
2021/10/12 09:59:50;;;;;;;20.05;8.82;;;19.70;36.40;;;;;;6097569;23;20392;-81
2021/10/12 10:02:23;;;;;;;19.27;9.57;;;19.80;36.70;;;;;;6098149;23;20006;-82
2021/10/12 10:04:50;;;;;;;20.90;9.18;;;19.70;36.30;;;;;;6093020;23;20676;-82
2021/10/12 10:07:30;;;;;;;18.20;8.88;;;19.40;36.50;;;;;;6092472;23;20007;-81
2021/10/12 10:09:58;;;;;;;13.52;7.90;;;19.30;36.50;;;;;;6066678;23;20068;-85
2021/10/12 10:12:25;;;;;;;11.57;8.82;;;18.30;37.10;;;;;;6092426;23;19998;-81
2021/10/12 10:14:51;;;;;;;11.27;7.97;;;17.20;39.10;;;;;;6066476;23;20085;-81
2021/10/12 10:17:19;;;;;;;13.65;8.98;;;16.50;40.10;;;;;;6093430;23;20022;-80
2021/10/12 10:19:46;;;;;;;19.35;10.23;;;16.00;41.40;;;;;;6067909;23;20006;-83
2021/10/12 10:22:42;;;;;;;17.60;10.18;;;15.80;42.00;;;;;;6070771;23;20042;-81
2021/10/12 10:25:29;;;;;;;15.57;8.27;;;15.70;42.10;;;;;;6095437;23;20015;-81
2021/10/12 10:28:27;;;;;;;11.77;7.90;;;15.50;42.10;;;;;;6093995;23;20006;-80
2021/10/12 10:30:57;;;;;;;18.95;8.80;;;15.20;42.90;;;;;;6093575;23;20003;-81
2021/10/12 10:33:37;;;;;;;14.43;9.07;;;14.90;43.50;;;;;;6094438;23;20009;-81
2021/10/12 10:36:08;;;;;;;14.85;8.57;;;14.90;43.80;;;;;;6094308;23;20399;-80
2021/10/12 10:38:45;;;;;;;15.38;8.73;;;14.80;43.90;;;;;;6095027;23;20112;-81
2021/10/12 10:41:11;;;;;;;14.27;9.32;;;14.90;44.10;;;;;;6068357;23;20014;-81
2021/10/12 10:43:49;;;;;;;18.75;10.05;;;14.80;44.20;;;;;;6094446;23;20015;-80
2021/10/12 10:46:34;;;;;;;17.27;9.25;;;14.90;44.30;;;;;;6068132;23;20010;-80
2021/10/12 10:49:21;;;;;;;12.23;8.07;;;15.00;44.20;;;;;;6068699;23;20049;-82
2021/10/12 10:52:04;;;;;;;16.88;9.07;;;15.10;44.40;;;;;;6097194;23;20006;-82
2021/10/12 10:54:45;;;;;;;12.50;8.00;;;14.90;45.20;;;;;;6094000;23;19999;-80
2021/10/12 10:57:19;;;;;;;10.60;8.20;;;14.60;45.00;;;;;;6067774;23;20011;-80
2021/10/12 11:00:07;;;;;;;15.07;7.78;;;14.30;45.70;;;;;;6093735;23;20022;-81
2021/10/12 11:02:33;;;;;;;16.98;10.18;;;14.20;46.00;;;;;;6093622;23;20132;-81
2021/10/12 11:04:59;;;;;;;16.58;8.77;;;14.10;46.60;;;;;;6093971;23;20006;-81
2021/10/12 11:07:28;;;;;;;13.27;9.52;;;14.00;46.30;;;;;;6093088;23;20497;-80
2021/10/12 11:09:54;;;;;;;10.48;6.80;;;14.00;46.30;;;;;;6093312;23;20003;-80
2021/10/12 11:12:26;;;;;;;10.10;8.63;;;13.90;46.50;;;;;;6093349;23;20012;-80
2021/10/12 11:14:54;;;;;;;15.52;10.95;;;13.90;46.80;;;;;;6094233;23;20056;-79
2021/10/12 11:17:19;;;;;;;12.38;9.23;;;14.10;46.70;;;;;;6093340;23;20025;-81
2021/10/12 11:19:59;;;;;;;10.90;9.18;;;14.30;46.40;;;;;;6093820;23;20373;-80
2021/10/12 11:22:27;;;;;;;15.85;9.10;;;14.30;45.90;;;;;;6093165;23;20002;-80
2021/10/12 11:24:54;;;;;;;14.52;10.02;;;14.20;46.10;;;;;;6092767;23;20065;-81
2021/10/12 11:27:20;;;;;;;12.23;9.75;;;14.30;46.30;;;;;;6093169;23;20056;-80
2021/10/12 11:30:03;;;;;;;14.85;10.25;;;14.40;45.80;;;;;;6093125;23;20002;-81
2021/10/12 11:32:29;;;;;;;16.65;9.13;;;14.50;45.80;;;;;;6092782;23;20006;-80
2021/10/12 11:34:55;;;;;;;11.52;8.88;;;14.40;45.70;;;;;;6093338;23;20451;-80
2021/10/12 11:37:20;;;;;;;14.70;10.05;;;14.40;46.00;;;;;;6067586;23;20081;-81
2021/10/12 11:39:46;;;;;;;13.63;9.68;;;14.30;46.10;;;;;;6093624;23;20002;-80
2021/10/12 11:42:12;;;;;;;14.20;8.80;;;14.30;46.20;;;;;;6092603;23;20009;-80
2021/10/12 11:44:38;;;;;;;16.95;7.88;;;14.30;45.70;;;;;;6093076;23;20014;-79
2021/10/12 11:47:03;;;;;;;14.45;8.35;;;14.20;45.80;;;;;;6093546;23;20440;-81
2021/10/12 11:49:37;;;;;;;14.18;7.68;;;14.20;45.90;;;;;;6067648;23;20011;-80
2021/10/12 11:52:12;;;;;;;17.02;9.38;;;14.20;46.10;;;;;;6067811;23;20009;-80
2021/10/12 11:54:38;;;;;;;17.60;10.10;;;14.20;46.30;;;;;;6092957;23;20006;-80
2021/10/12 11:57:06;;;;;;;13.77;8.68;;;14.20;46.30;;;;;;6092800;23;20002;-80
2021/10/12 11:59:46;;;;;;;13.82;8.80;;;14.20;46.30;;;;;;6093388;23;20002;-80
2021/10/12 12:02:13;;;;;;;10.60;7.88;;;14.20;46.70;;;;;;6092938;23;20011;-80
2021/10/12 12:04:39;;;;;;;13.23;8.80;;;14.20;46.40;;;;;;6093274;23;20017;-80
2021/10/12 12:07:07;;;;;;;10.82;7.22;;;14.10;46.60;;;;;;6092926;23;20229;-80
2021/10/12 12:09:36;;;;;;;14.30;7.82;;;14.10;46.70;;;;;;6094396;23;20007;-81
2021/10/12 12:12:07;;;;;;;11.85;8.32;;;14.00;46.80;;;;;;6097426;23;19999;-79
2021/10/12 12:14:34;;;;;;;15.13;9.77;;;14.00;46.90;;;;;;6068126;23;20009;-79
2021/10/12 12:17:27;;;;;;;12.77;8.97;;;14.00;47.00;;;;;;6093282;23;20066;-80
2021/10/12 12:20:05;;;;;;;12.13;8.85;;;14.10;46.70;;;;;;6092734;23;20009;-81
2021/10/12 12:22:31;;;;;;;13.90;9.00;;;13.90;46.70;;;;;;6092918;23;20511;-81
2021/10/12 12:25:07;;;;;;;14.65;8.95;;;13.90;47.20;;;;;;6092914;23;20073;-82
2021/10/12 12:27:54;;;;;;;14.13;8.13;;;13.80;47.30;;;;;;6093574;23;20449;-80
2021/10/12 12:30:43;;;;;;;16.55;9.18;;;13.70;47.50;;;;;;6067420;23;20002;-81
2021/10/12 12:33:09;;;;;;;15.73;9.23;;;13.80;47.90;;;;;;6092855;23;20002;-81
2021/10/12 12:35:44;;;;;;;10.32;9.00;;;13.70;47.90;;;;;;6093567;23;20041;-81
2021/10/12 12:38:10;;;;;;;13.10;7.93;;;13.80;48.60;;;;;;6068331;23;20138;-81
2021/10/12 12:40:44;;;;;;;15.05;9.15;;;13.80;48.00;;;;;;6097255;23;20077;-81
2021/10/12 12:43:17;;;;;;;16.17;11.07;;;13.80;48.20;;;;;;6097628;23;20021;-81
2021/10/12 12:45:43;;;;;;;17.90;10.40;;;13.80;48.30;;;;;;6069081;23;20002;-81
2021/10/12 12:48:08;;;;;;;18.83;10.25;;;13.80;48.40;;;;;;6094724;23;20069;-82
2021/10/12 12:50:38;;;;;;;13.73;9.48;;;13.80;48.40;;;;;;6067486;23;20002;-80
2021/10/12 12:53:06;;;;;;;19.88;10.52;;;13.90;48.40;;;;;;6067291;23;20086;-79